createdAt,value
2022-12-09T00:02:26.354Z,99583.25
2022-12-09T00:04:54.953Z,99576.13
2022-12-09T00:07:23.522Z,99580.16
2022-12-09T00:09:53.027Z,99557.81
2022-12-09T00:12:21.435Z,99521.56
2022-12-09T00:14:51.231Z,99551.38
2022-12-09T00:17:19.731Z,99539.09
2022-12-09T00:19:48.336Z,99540.75
2022-12-09T00:22:16.703Z,99550.81
2022-12-09T00:24:45.096Z,99544.22
2022-12-09T00:27:13.476Z,99526.78
2022-12-09T00:29:41.740Z,99528.47
2022-12-09T00:32:11.557Z,99494.44
2022-12-09T00:34:40.078Z,99520.06
2022-12-09T00:37:09.767Z,99518.25
2022-12-09T00:39:38.135Z,99508.63
2022-12-09T00:42:06.520Z,99504.97
2022-12-09T00:44:35.096Z,99505.81
2022-12-09T00:47:03.668Z,99505.81
2022-12-09T00:49:33.650Z,99502.88
2022-12-09T00:52:02.176Z,99500.88
2022-12-09T00:54:30.862Z,99501.56
2022-12-09T00:56:59.176Z,99452.81
2022-12-09T00:59:27.623Z,99473.06
2022-12-09T01:01:56.211Z,99464.13
2022-12-09T01:04:25.563Z,99455.19
2022-12-09T01:06:55.562Z,99451.41
2022-12-09T01:09:24.324Z,99445.09
2022-12-09T01:11:52.799Z,99427.06
2022-12-09T01:14:21.266Z,99452.53
2022-12-09T01:16:49.882Z,99443.59
2022-12-09T01:19:18.815Z,99440.63
2022-12-09T01:21:47.265Z,99449.56
2022-12-09T01:24:17.193Z,99442.00
2022-12-09T01:26:45.700Z,99444.66
2022-12-09T01:29:14.254Z,99429.44
2022-12-09T01:31:43.551Z,99429.13
2022-12-09T01:34:12.217Z,99428.16
2022-12-09T01:36:40.798Z,99427.16
2022-12-09T01:39:09.294Z,99426.88
2022-12-09T01:41:39.363Z,99430.84
2022-12-09T01:44:14.214Z,99409.56
2022-12-09T01:46:43.260Z,99425.25
2022-12-09T01:49:16.150Z,99417.59
2022-12-09T01:51:48.183Z,99409.47
2022-12-09T01:54:17.436Z,99417.28
2022-12-09T01:56:48.201Z,99410.84
2022-12-09T01:59:17.847Z,99413.34
2022-12-09T02:01:50.016Z,99369.97
2022-12-09T02:04:20.088Z,99406.91
2022-12-09T02:06:48.829Z,99399.47
2022-12-09T02:09:20.045Z,99389.53
2022-12-09T02:12:02.623Z,99380.13
2022-12-09T02:14:37.710Z,99378.84
2022-12-09T02:17:23.461Z,99370.03
2022-12-09T02:20:01.894Z,99363.22
2022-12-09T02:22:34.115Z,99355.41
2022-12-09T02:25:12.787Z,99351.75
2022-12-09T02:27:52.489Z,99376.34
2022-12-09T02:30:24.071Z,99364.88
2022-12-09T02:33:27.730Z,99371.03
2022-12-09T02:36:03.310Z,99377.50
2022-12-09T02:38:34.612Z,99342.88
2022-12-09T02:41:06.960Z,99376.44
2022-12-09T02:43:45.176Z,99362.56
2022-12-09T02:46:21.039Z,99358.91
2022-12-09T02:48:54.458Z,99362.25
2022-12-09T02:51:26.794Z,99358.59
2022-12-09T02:53:59.262Z,99350.09
2022-12-09T02:56:29.530Z,99352.59
2022-12-09T02:58:58.021Z,99341.97
2022-12-09T03:01:36.637Z,99316.13
2022-12-09T03:04:06.779Z,99333.63
2022-12-09T03:06:42.055Z,99330.31
2022-12-09T03:09:13.478Z,99298.66
2022-12-09T03:11:42.678Z,99323.00
2022-12-09T03:14:15.198Z,99336.13
2022-12-09T03:16:50.710Z,99319.06
2022-12-09T03:19:24.073Z,99309.28
2022-12-09T03:21:57.942Z,99303.13
2022-12-09T03:24:31.356Z,99239.94
2022-12-09T03:27:02.268Z,99304.78
2022-12-09T03:29:35.258Z,99309.78
2022-12-09T03:32:03.769Z,99300.84
2022-12-09T03:34:38.083Z,99296.34
2022-12-09T03:37:10.900Z,99297.19
2022-12-09T03:39:42.472Z,99286.38
2022-12-09T03:42:17.360Z,99294.88
2022-12-09T03:44:51.903Z,99287.56
2022-12-09T03:47:20.622Z,99272.94
2022-12-09T03:49:49.522Z,99277.94
2022-12-09T03:52:24.512Z,99264.66
2022-12-09T03:55:01.036Z,99249.84
2022-12-09T03:57:30.470Z,99241.38
2022-12-09T04:00:02.281Z,99238.88
2022-12-09T04:02:41.102Z,99239.88
2022-12-09T04:05:10.525Z,99221.25
2022-12-09T04:07:40.555Z,99197.75
2022-12-09T04:10:10.548Z,99232.41
2022-12-09T04:12:40.292Z,99221.13
2022-12-09T04:15:10.277Z,99226.78
2022-12-09T04:17:38.915Z,99210.50
2022-12-09T04:20:09.259Z,99212.84
2022-12-09T04:22:38.385Z,99207.38
2022-12-09T04:25:08.820Z,99215.03
2022-12-09T04:27:37.656Z,99216.22
2022-12-09T04:30:07.952Z,99222.06
2022-12-09T04:32:38.220Z,99229.53
2022-12-09T04:35:07.316Z,99173.13
2022-12-09T04:37:37.543Z,99211.28
2022-12-09T04:40:09.199Z,99215.06
2022-12-09T04:42:38.468Z,99202.09
2022-12-09T04:45:08.364Z,99196.63
2022-12-09T04:47:36.981Z,99196.47
2022-12-09T04:50:07.411Z,99178.63
2022-12-09T04:52:36.787Z,99204.75
2022-12-09T04:55:05.616Z,99204.75
2022-12-09T04:57:37.658Z,99204.75
2022-12-09T05:00:07.565Z,99210.91
2022-12-09T05:02:37.534Z,99214.91
2022-12-09T05:05:06.860Z,99129.69
2022-12-09T05:07:35.743Z,99210.44
2022-12-09T05:10:05.155Z,99215.06
2022-12-09T05:12:36.071Z,99216.34
2022-12-09T05:15:05.222Z,99226.84
2022-12-09T05:17:33.729Z,99221.84
2022-12-09T05:20:02.229Z,99222.50
2022-12-09T05:22:30.481Z,99221.00
2022-12-09T05:24:58.879Z,99215.19
2022-12-09T05:27:27.621Z,99219.97
2022-12-09T05:29:57.699Z,99218.47
2022-12-09T05:32:29.276Z,99224.91
2022-12-09T05:34:59.158Z,99224.09
2022-12-09T05:37:27.574Z,99214.44
2022-12-09T05:39:55.977Z,99207.28
2022-12-09T05:42:24.278Z,99206.19
2022-12-09T05:44:52.599Z,99223.78
2022-12-09T05:47:23.350Z,99219.97
2022-12-09T05:49:51.864Z,99218.31
2022-12-09T05:52:20.592Z,99218.00
2022-12-09T05:54:49.319Z,99224.97
2022-12-09T05:57:18.445Z,99222.16
2022-12-09T05:59:47.038Z,99225.81
2022-12-09T06:02:15.647Z,99233.94
2022-12-09T06:04:45.719Z,99239.25
2022-12-09T06:07:14.364Z,99235.41
2022-12-09T06:09:45.009Z,99231.06
2022-12-09T06:12:13.572Z,99225.91
2022-12-09T06:14:42.106Z,99229.56
2022-12-09T06:17:10.527Z,99220.91
2022-12-09T06:19:39.419Z,99219.56
2022-12-09T06:22:09.580Z,99217.91
2022-12-09T06:24:38.300Z,99218.72
2022-12-09T06:27:07.656Z,99213.94
2022-12-09T06:29:36.113Z,99215.06
2022-12-09T06:32:04.828Z,99214.41
2022-12-09T06:34:33.540Z,99215.41
2022-12-09T06:37:02.162Z,99223.38
2022-12-09T06:39:32.094Z,99216.75
2022-12-09T06:42:01.237Z,99211.75
2022-12-09T06:44:29.728Z,99215.06
2022-12-09T06:46:58.403Z,99218.22
2022-12-09T06:49:27.120Z,99217.53
2022-12-09T06:51:55.787Z,99215.03
2022-12-09T06:54:24.292Z,99210.22
2022-12-09T06:56:54.447Z,99212.72
2022-12-09T06:59:22.952Z,99199.94
2022-12-09T07:01:51.665Z,99194.81
2022-12-09T07:04:20.519Z,99194.50
2022-12-09T07:06:49.086Z,99208.25
2022-12-09T07:09:20.930Z,99220.41
2022-12-09T07:11:50.299Z,99229.56
2022-12-09T07:14:20.721Z,99182.13
2022-12-09T07:16:49.207Z,99188.78
2022-12-09T07:19:20.081Z,99231.28
2022-12-09T07:21:49.492Z,99224.41
2022-12-09T07:24:19.301Z,99248.44
2022-12-09T07:26:48.843Z,99239.09
2022-12-09T07:29:20.270Z,99251.91
2022-12-09T07:31:49.519Z,99253.44
2022-12-09T07:34:18.568Z,99257.59
2022-12-09T07:36:47.414Z,99258.09
2022-12-09T07:39:18.025Z,99250.31
2022-12-09T07:41:48.630Z,99189.91
2022-12-09T07:44:17.506Z,99249.66
2022-12-09T07:46:48.712Z,99269.44
2022-12-09T07:49:17.470Z,99267.59
2022-12-09T07:51:45.995Z,99284.59
2022-12-09T07:54:16.385Z,99286.75
2022-12-09T07:56:44.958Z,99301.09
2022-12-09T07:59:14.678Z,99301.25
2022-12-09T08:01:43.771Z,99296.94
2022-12-09T08:04:14.369Z,99293.63
2022-12-09T08:06:43.497Z,99283.78
2022-12-09T08:09:14.181Z,99277.97
2022-12-09T08:11:43.564Z,99284.28
2022-12-09T08:14:13.577Z,99215.75
2022-12-09T08:16:43.518Z,99282.78
2022-12-09T08:19:15.523Z,99290.78
2022-12-09T08:21:45.569Z,99287.47
2022-12-09T08:24:17.180Z,99298.09
2022-12-09T08:26:45.867Z,99302.06
2022-12-09T08:29:15.282Z,99301.75
2022-12-09T08:31:45.326Z,99316.34
2022-12-09T08:34:16.186Z,99311.47
2022-12-09T08:36:45.285Z,99331.81
2022-12-09T08:39:14.847Z,99308.34
2022-12-09T08:41:45.480Z,99307.69
2022-12-09T08:44:16.258Z,99345.41
2022-12-09T08:46:48.367Z,99336.03
2022-12-09T08:49:20.318Z,99329.66
2022-12-09T08:51:51.728Z,99339.44
2022-12-09T08:54:21.542Z,99296.84
2022-12-09T08:56:52.210Z,99344.00
2022-12-09T08:59:20.868Z,99352.31
2022-12-09T09:01:49.643Z,99361.44
2022-12-09T09:04:22.983Z,99365.00
2022-12-09T09:06:52.955Z,99362.28
2022-12-09T09:09:23.271Z,99351.28
2022-12-09T09:11:51.957Z,99355.47
2022-12-09T09:14:20.314Z,99337.53
2022-12-09T09:16:49.126Z,99346.28
2022-12-09T09:19:22.584Z,99360.13
2022-12-09T09:21:51.686Z,99313.75
2022-12-09T09:24:22.920Z,99358.63
2022-12-09T09:26:53.246Z,99373.31
2022-12-09T09:29:23.797Z,99360.47
2022-12-09T09:31:54.876Z,99375.91
2022-12-09T09:34:25.999Z,99370.47
2022-12-09T09:36:54.916Z,99366.31
2022-12-09T09:39:23.442Z,99373.69
2022-12-09T09:41:54.478Z,99355.25
2022-12-09T09:44:30.435Z,99379.91
2022-12-09T09:47:00.285Z,99372.53
2022-12-09T09:49:37.610Z,99365.50
2022-12-09T09:52:11.024Z,99376.53
2022-12-09T09:54:39.511Z,99372.25
2022-12-09T09:57:15.799Z,99372.34
2022-12-09T10:00:08.751Z,99374.38
2022-12-09T10:03:01.455Z,99374.00
2022-12-09T10:05:35.752Z,99368.19
2022-12-09T10:08:29.137Z,99362.09
2022-12-09T10:11:09.162Z,99356.75
2022-12-09T10:13:48.478Z,99363.41
2022-12-09T10:16:20.294Z,99362.03
2022-12-09T10:19:09.248Z,99365.16
2022-12-09T10:21:44.395Z,99355.13
2022-12-09T10:24:24.215Z,99350.44
2022-12-09T10:27:02.994Z,99354.19
2022-12-09T10:29:49.241Z,99312.00
2022-12-09T10:32:20.662Z,99335.53
2022-12-09T10:34:49.705Z,99337.06
2022-12-09T10:37:28.328Z,99340.44
2022-12-09T10:40:02.308Z,99350.25
2022-12-09T10:42:49.969Z,99357.34
2022-12-09T10:45:18.923Z,99349.50
2022-12-09T10:47:52.398Z,99354.69
2022-12-09T10:50:31.715Z,99341.84
2022-12-09T10:53:07.685Z,99351.16
2022-12-09T10:55:38.294Z,99350.91
2022-12-09T10:58:18.410Z,99302.00
2022-12-09T11:01:04.412Z,99339.63
2022-12-09T11:03:36.294Z,99331.53
2022-12-09T11:06:16.516Z,99306.16
2022-12-09T11:08:54.446Z,99317.50
2022-12-09T11:11:41.205Z,99319.16
2022-12-09T11:14:25.663Z,99314.63
2022-12-09T11:16:56.294Z,99324.69
2022-12-09T11:19:36.859Z,99188.28
2022-12-09T11:22:29.277Z,99318.88
2022-12-09T11:25:19.401Z,99323.66
2022-12-09T11:27:51.532Z,99322.25
2022-12-09T11:30:22.489Z,99321.69
2022-12-09T11:33:01.383Z,99325.66
2022-12-09T11:35:39.188Z,99327.16
2022-12-09T11:38:18.788Z,99297.72
2022-12-09T11:41:01.283Z,99330.84
2022-12-09T11:43:36.445Z,99332.31
2022-12-09T11:46:17.695Z,99329.66
2022-12-09T11:48:54.364Z,99330.28
2022-12-09T11:51:27.465Z,99327.06
2022-12-09T11:54:03.708Z,99246.19
2022-12-09T11:56:35.964Z,99328.81
2022-12-09T11:59:10.483Z,99300.19
2022-12-09T12:01:48.306Z,99326.78
2022-12-09T12:04:21.275Z,99321.59
2022-12-09T12:06:53.642Z,99323.25
2022-12-09T12:09:27.253Z,99300.19
2022-12-09T12:12:06.218Z,99321.16
2022-12-09T12:14:39.365Z,99321.53
2022-12-09T12:17:17.995Z,99326.88
2022-12-09T12:19:50.544Z,99332.88
2022-12-09T12:22:38.111Z,99328.63
2022-12-09T12:25:24.631Z,99336.47
2022-12-09T12:28:08.637Z,99321.22
2022-12-09T12:30:51.244Z,99319.00
2022-12-09T12:36:33.359Z,99299.88
2022-12-09T12:39:13.831Z,99295.97
2022-12-09T12:41:50.879Z,99297.25
2022-12-09T12:44:50.232Z,99298.94
2022-12-09T12:47:24.217Z,99294.78
2022-12-09T12:50:16.224Z,99284.06
2022-12-09T12:52:58.021Z,99300.13
2022-12-09T12:55:44.745Z,99304.47
2022-12-09T12:58:21.525Z,99282.00
2022-12-09T13:01:01.364Z,99301.34
2022-12-09T13:03:37.704Z,99306.88
2022-12-09T13:06:10.248Z,99308.53
2022-12-09T13:08:43.692Z,99269.91
2022-12-09T13:11:17.254Z,99266.84
2022-12-09T13:13:50.879Z,99291.72
2022-12-09T13:16:27.931Z,99303.34
2022-12-09T13:19:03.743Z,99299.28
2022-12-09T13:21:32.065Z,99310.81
2022-12-09T13:24:10.159Z,99303.22
2022-12-09T13:26:48.857Z,99294.81
2022-12-09T13:29:30.332Z,99286.56
2022-12-09T13:32:22.773Z,99292.41
2022-12-09T13:34:55.239Z,99292.75
2022-12-09T13:37:35.008Z,99297.38
2022-12-09T13:40:04.665Z,99304.84
2022-12-09T13:42:56.521Z,99282.97
2022-12-09T13:45:33.868Z,99299.94
2022-12-09T13:48:11.916Z,99307.88
2022-12-09T13:50:45.870Z,99305.56
2022-12-09T13:53:27.251Z,99302.88
2022-12-09T13:55:58.178Z,99307.22
2022-12-09T13:58:43.460Z,99275.50
2022-12-09T14:01:21.806Z,99301.22
2022-12-09T14:04:02.789Z,99310.28
2022-12-09T14:06:34.629Z,99305.31
2022-12-09T14:09:07.906Z,99312.69
2022-12-09T14:11:47.577Z,99313.91
2022-12-09T14:14:58.412Z,99311.41
2022-12-09T14:18:03.929Z,99306.44
2022-12-09T14:20:36.941Z,99298.09
2022-12-09T14:23:18.567Z,99305.81
2022-12-09T14:25:59.433Z,99303.88
2022-12-09T14:28:52.891Z,99300.09
2022-12-09T14:31:57.857Z,99296.78
2022-12-09T14:34:38.200Z,99305.84
2022-12-09T14:37:31.902Z,99301.69
2022-12-09T14:40:17.138Z,99297.44
2022-12-09T14:42:51.862Z,99318.13
2022-12-09T14:45:30.658Z,99295.94
2022-12-09T14:47:59.272Z,99320.63
2022-12-09T14:50:30.063Z,99321.06
2022-12-09T14:53:03.039Z,99313.22
2022-12-09T14:55:35.179Z,99320.44
2022-12-09T14:58:03.766Z,99324.31
2022-12-09T15:00:36.426Z,99332.81
2022-12-09T15:03:32.119Z,99327.44
2022-12-09T15:05:57.039Z,99332.81
2022-12-09T15:08:35.331Z,99341.59
2022-12-09T15:11:13.183Z,99347.22
2022-12-09T15:13:43.866Z,99343.72
2022-12-09T15:16:15.048Z,99354.88
2022-12-09T15:18:45.711Z,99344.53
2022-12-09T15:21:27.327Z,99353.97
2022-12-09T15:23:58.087Z,99354.53
2022-12-09T15:26:29.517Z,99360.91
2022-12-09T15:28:59.526Z,99356.38
2022-12-09T15:31:29.948Z,99368.75
2022-12-09T15:34:00.609Z,99365.41
2022-12-09T15:36:33.208Z,99364.59
2022-12-09T15:39:06.916Z,99370.13
2022-12-09T15:42:02.649Z,99375.50
2022-12-09T15:44:34.627Z,99373.59
2022-12-09T15:47:10.155Z,99371.66
2022-12-09T15:49:44.515Z,99372.84
2022-12-09T15:52:15.198Z,99382.06
2022-12-09T15:54:45.929Z,99383.47
2022-12-09T15:57:18.366Z,99376.34
2022-12-09T15:59:55.709Z,99383.47
2022-12-09T16:02:27.805Z,99378.22
2022-12-09T16:04:58.748Z,99383.28
2022-12-09T16:07:27.334Z,99385.66
2022-12-09T16:10:13.431Z,99389.34
2022-12-09T16:12:44.936Z,99388.91
2022-12-09T16:15:15.391Z,99396.28
2022-12-09T16:17:54.564Z,99397.19
2022-12-09T16:20:33.910Z,99402.63
2022-12-09T16:23:02.903Z,99398.16
2022-12-09T16:25:38.988Z,99407.78
2022-12-09T16:28:08.204Z,99404.69
2022-12-09T16:30:46.950Z,99407.72
2022-12-09T16:33:18.811Z,99408.53
2022-12-09T16:35:58.031Z,99403.03
2022-12-09T16:38:26.768Z,99402.84
2022-12-09T16:41:11.001Z,99372.38
2022-12-09T16:43:54.628Z,99391.84
2022-12-09T16:46:41.370Z,99413.66
2022-12-09T16:49:10.233Z,99408.00
2022-12-09T16:51:39.638Z,99415.19
2022-12-09T16:54:20.024Z,99417.84
2022-12-09T16:56:51.457Z,99307.19
2022-12-09T16:59:19.736Z,99411.19
2022-12-09T17:01:48.247Z,99414.53
2022-12-09T17:04:19.323Z,99418.03
2022-12-09T17:06:47.599Z,99421.22
2022-12-09T17:09:15.858Z,99424.25
2022-12-09T17:11:48.725Z,99415.66
2022-12-09T17:14:18.793Z,99418.34
2022-12-09T17:16:47.116Z,99422.34
2022-12-09T17:19:15.557Z,99423.38
2022-12-09T17:21:43.985Z,99422.72
2022-12-09T17:24:13.908Z,99431.25
2022-12-09T17:26:42.184Z,99425.59
2022-12-09T17:29:10.488Z,99433.97
2022-12-09T17:31:40.225Z,99431.78
2022-12-09T17:34:08.695Z,99428.94
2022-12-09T17:36:37.015Z,99427.78
2022-12-09T17:39:07.522Z,99435.94
2022-12-09T17:41:35.742Z,99433.59
2022-12-09T17:44:04.014Z,99444.63
2022-12-09T17:46:32.367Z,99448.22
2022-12-09T17:49:02.519Z,99437.88
2022-12-09T17:51:35.633Z,99446.91
2022-12-09T17:54:04.714Z,99456.44
2022-12-09T17:56:33.190Z,99456.63
2022-12-09T17:59:03.784Z,99451.94
2022-12-09T18:01:34.200Z,99462.13
2022-12-09T18:04:09.634Z,99458.78
2022-12-09T18:06:39.234Z,99462.00
2022-12-09T18:09:09.809Z,99465.03
2022-12-09T18:11:38.488Z,99444.72
2022-12-09T18:14:07.513Z,99465.19
2022-12-09T18:16:35.898Z,99469.69
2022-12-09T18:19:07.154Z,99483.38
2022-12-09T18:21:35.808Z,99485.56
2022-12-09T18:24:04.225Z,99471.41
2022-12-09T18:26:38.165Z,99488.56
2022-12-09T18:29:08.146Z,99487.25
2022-12-09T18:31:36.777Z,99486.56
2022-12-09T18:34:06.466Z,99486.41
2022-12-09T18:36:34.708Z,99489.41
2022-12-09T18:39:03.001Z,99490.78
2022-12-09T18:41:33.326Z,99456.63
2022-12-09T18:44:04.165Z,99479.78
2022-12-09T18:46:36.464Z,99493.94
2022-12-09T18:49:08.643Z,99487.13
2022-12-09T18:51:37.431Z,99493.13
2022-12-09T18:54:06.960Z,99503.13
2022-12-09T18:56:36.609Z,99505.28
2022-12-09T18:59:07.020Z,99501.47
2022-12-09T19:01:39.956Z,99496.47
2022-12-09T19:04:14.491Z,99508.47
2022-12-09T19:06:44.776Z,99483.50
2022-12-09T19:09:15.072Z,99475.16
2022-12-09T19:11:44.661Z,99519.31
2022-12-09T19:14:14.234Z,99517.31
2022-12-09T19:16:43.582Z,99518.81
2022-12-09T19:19:15.322Z,99520.00
2022-12-09T19:21:44.226Z,99521.78
2022-12-09T19:24:18.924Z,99490.44
2022-12-09T19:26:50.544Z,99519.78
2022-12-09T19:29:28.087Z,99516.78
2022-12-09T19:31:58.502Z,99519.59
2022-12-09T19:34:29.907Z,99513.78
2022-12-09T19:37:00.279Z,99516.97
2022-12-09T19:39:31.440Z,99517.47
2022-12-09T19:42:00.287Z,99515.47
2022-12-09T19:45:01.053Z,99519.13
2022-12-09T19:47:17.643Z,99520.63
2022-12-09T19:49:47.266Z,99523.97
2022-12-09T19:52:15.589Z,99529.63
2022-12-09T19:54:43.804Z,99499.78
2022-12-09T19:57:12.112Z,99529.44
2022-12-09T19:59:40.374Z,99526.94
2022-12-09T20:02:12.103Z,99527.13
2022-12-09T20:04:50.156Z,99530.09
2022-12-09T20:07:21.021Z,99538.94
2022-12-09T20:09:49.682Z,99535.28
2022-12-09T20:12:18.046Z,99540.09
2022-12-09T20:14:46.457Z,99527.75
2022-12-09T20:17:16.746Z,99551.09
2022-12-09T20:19:45.161Z,99541.75
2022-12-09T20:22:13.578Z,99547.41
2022-12-09T20:24:44.247Z,99543.09
2022-12-09T20:27:12.609Z,99551.91
2022-12-09T20:29:40.826Z,99552.88
2022-12-09T20:32:10.310Z,99552.34
2022-12-09T20:34:38.988Z,99503.97
2022-12-09T20:37:07.525Z,99550.00
2022-12-09T20:39:36.835Z,99550.84
2022-12-09T20:42:07.215Z,99539.16
2022-12-09T20:44:36.491Z,99540.94
2022-12-09T20:47:04.787Z,99540.59
2022-12-09T20:49:33.038Z,99551.28
2022-12-09T20:52:02.307Z,99553.63
2022-12-09T20:54:30.709Z,99551.59
2022-12-09T20:56:59.010Z,99557.41
2022-12-09T20:59:28.955Z,99556.72
2022-12-09T21:01:57.331Z,99552.56
2022-12-09T21:04:26.276Z,99560.56
2022-12-09T21:06:54.624Z,99563.22
2022-12-09T21:09:27.170Z,99558.06
2022-12-09T21:11:55.582Z,99558.53
2022-12-09T21:14:29.419Z,99559.38
2022-12-09T21:17:04.335Z,99559.00
2022-12-09T21:19:33.240Z,99550.50
2022-12-09T21:22:01.507Z,99549.59
2022-12-09T21:24:29.803Z,99559.41
2022-12-09T21:26:58.402Z,99556.53
2022-12-09T21:29:31.691Z,99554.34
2022-12-09T21:32:03.088Z,99543.00
2022-12-09T21:34:31.794Z,99540.63
2022-12-09T21:37:01.853Z,99540.72
2022-12-09T21:39:30.217Z,99521.47
2022-12-09T21:41:58.484Z,99539.44
2022-12-09T21:44:28.410Z,99550.63
2022-12-09T21:46:56.724Z,99553.41
2022-12-09T21:49:35.181Z,99571.59
2022-12-09T21:52:06.598Z,99567.25
2022-12-09T21:54:34.938Z,99579.72
2022-12-09T21:57:03.181Z,99569.03
2022-12-09T21:59:31.606Z,99568.34
2022-12-09T22:01:59.837Z,99568.50
2022-12-09T22:04:29.519Z,99571.00
2022-12-09T22:06:57.813Z,99572.16
2022-12-09T22:09:26.109Z,99571.47
2022-12-09T22:11:54.324Z,99582.56
2022-12-09T22:14:22.640Z,99578.66
2022-12-09T22:16:50.937Z,99585.78
2022-12-09T22:19:22.152Z,99586.63
2022-12-09T22:21:51.831Z,99590.28
2022-12-09T22:24:20.589Z,99589.44
2022-12-09T22:26:49.010Z,99594.44
2022-12-09T22:29:18.804Z,99597.81
2022-12-09T22:31:47.459Z,99604.81
2022-12-09T22:34:17.914Z,99606.63
2022-12-09T22:36:46.877Z,99612.09
2022-12-09T22:39:18.477Z,99609.56
2022-12-09T22:41:46.863Z,99613.66
2022-12-09T22:44:17.124Z,99604.16
2022-12-09T22:46:46.062Z,99600.16
2022-12-09T22:49:16.374Z,99567.19
2022-12-09T22:51:46.104Z,99603.88
2022-12-09T22:54:16.551Z,99599.16
2022-12-09T22:56:45.815Z,99593.44
2022-12-09T22:59:14.980Z,99597.41
2022-12-09T23:01:45.219Z,99605.91
2022-12-09T23:04:14.595Z,99605.75
2022-12-09T23:06:43.034Z,99606.44
2022-12-09T23:09:14.440Z,99604.16
2022-12-09T23:11:44.204Z,99602.50
2022-12-09T23:14:13.711Z,99602.78
2022-12-09T23:16:42.014Z,99604.56
2022-12-09T23:19:11.252Z,99610.00
2022-12-09T23:21:41.067Z,99610.69
2022-12-09T23:24:16.437Z,99607.88
2022-12-09T23:26:48.348Z,99621.63
2022-12-09T23:29:17.819Z,99622.75
2022-12-09T23:31:46.393Z,99608.50
2022-12-09T23:34:15.824Z,99608.25
2022-12-09T23:36:45.305Z,99606.88
2022-12-09T23:39:15.731Z,99608.53
2022-12-09T23:41:45.195Z,99605.44
2022-12-09T23:44:17.463Z,99609.91
2022-12-09T23:46:46.099Z,99613.56
2022-12-09T23:49:14.415Z,99612.19
2022-12-09T23:51:44.645Z,99609.22
2022-12-09T23:54:15.007Z,99599.28
2022-12-09T23:56:49.617Z,99601.94
2022-12-09T23:59:21.445Z,99593.28
